Nearby METAR Reports

 

KSJC - San Jose, California, USA
Distance from station: NØ 14km
Oppdatert: 23/11/2020 22:53
Few Clouds
Few Clouds
 Vind fra N
Vind: N 11 km/h
Temperatur: 16°C
Duggpunkt: 8°C
Fuktighet: 59%
Barometer: 1016.6 hPa
Clouds: Few Clouds
Visibility: 16 km
Cloud details: Few Clouds 488 m
Few Clouds 2743 m
2020/11/23 21:53 KSJC 232153Z 35006KT 10SM FEW016 FEW090 16/08 A3002 RMK AO2 SLP165 T01560078
KNUQ - Moffett Nas/Mtn, California, USA
Distance from station: N 14km
Oppdatert: 15/11/2020 11:00
NOT Current
Klart
Klart
 Vind fra calm
Vind: Stille
Temperatur: 6°C
Duggpunkt: 5°C
Fuktighet: 93%
Barometer: 1025.4 hPa
Clouds: Klart
Visibility: 16 km
2020/11/15 10:00 KNUQ 151000Z AUTO 00000KT 10SM CLR 06/05 A3028 RMK AO2
 
KPAO - Palo Alto, California, USA
Distance from station: NNV 23km
Oppdatert: 23/11/2020 22:47
Few Clouds
Few Clouds
 Vind fra N
Vind: N 13 km/h
Temperatur: 16°C
Duggpunkt: 9°C
Fuktighet: 63%
Barometer: 1016.9 hPa
Clouds: Few Clouds
Visibility: 16 km
Cloud details: Few Clouds 914 m
2020/11/23 21:47 KPAO 232147Z 35007KT 10SM FEW030 16/09 A3003
KRHV - San Jose/Reid, California, USA
Distance from station: ØNØ 19km
Oppdatert: 23/11/2020 22:47
Delvis skyet
Delvis skyet
 Vind fra VSV
Vind: VSV 7 km/h
Temperatur: 15°C
Duggpunkt: 9°C
Fuktighet: 68%
Barometer: 1016.6 hPa
Clouds: Delvis skyet
Visibility: 16 km
Cloud details: Delvis skyet 853 m
2020/11/23 21:47 KRHV 232147Z 25004KT 10SM SCT028 15/09 A3002
 
KOAK - Oakland, California, USA
Distance from station: NNV 50km
Oppdatert: 23/11/2020 22:53
Few Clouds
Few Clouds
 Vind fra VSV
Vind: VSV 7 km/h
Temperatur: 16°C
Duggpunkt: 9°C
Fuktighet: 63%
Barometer: 1016.9 hPa
Clouds: Few Clouds
Visibility: 16 km
Cloud details: Few Clouds 549 m
Few Clouds 6096 m
2020/11/23 21:53 KOAK 232153Z 24004KT 10SM FEW018 FEW200 16/09 A3003 RMK AO2 SLP170 T01610094
KSQL - San Carlos Airpo, California, USA
Distance from station: NV 34km
Oppdatert: 23/11/2020 22:49
Delvis skyet
Delvis skyet
 Vind fra varies
Vind: varies 7 km/h
Temperatur: 15°C
Duggpunkt: 9°C
Fuktighet: 68%
Barometer: 1016.9 hPa
Clouds: Delvis skyet
Visibility: 16 km
Cloud details: Delvis skyet 518 m
2020/11/23 21:49 KSQL 232149Z VRB04KT 10SM SCT017 15/09 A3003
 
KSFO - San Francisco, California, USA
Distance from station: NV 49km
Oppdatert: 23/11/2020 22:56
Few Clouds
Few Clouds
 Vind fra V
Vind: V 30 km/h
Temperatur: 14°C
Duggpunkt: 9°C
Fuktighet: 72%
Barometer: 1016.9 hPa
Clouds: Few Clouds
Visibility: 16 km
Cloud details: Few Clouds 274 m
2020/11/23 21:56 KSFO 232156Z 28016KT 10SM FEW009 14/09 A3003 RMK AO2 WSHFT 2128 SLP170 T01440089
KE16 - San Martin, California, USA
Distance from station: ØSØ 43km
Oppdatert: 23/11/2020 22:55
Klart
Klart
 Vind fra N
Vind: N 13 km/h
Temperatur: 14°C
Duggpunkt: 9°C
Fuktighet: 72%
Barometer: 1016.9 hPa
Clouds: Klart
Visibility: 16 km
2020/11/23 21:55 KE16 232155Z AUTO 35007KT 10SM CLR 14/09 A3003 RMK AO2
 
KWVI - Watsonville, California, USA
Distance from station: SSØ 44km
Oppdatert: 23/11/2020 22:53
Klart
Klart
 Vind fra VSV
Vind: VSV 13 km/h
Temperatur: 15°C
Duggpunkt: 9°C
Fuktighet: 68%
Barometer: 1016.6 hPa
Clouds: Klart
Visibility: 16 km
2020/11/23 21:53 KWVI 232153Z AUTO 24007KT 10SM CLR 15/09 A3002 RMK AO2 SLP165 T01500094
KHAF - Half Moon Bay, California, USA
Distance from station: VNV 50km
Oppdatert: 23/11/2020 22:55
Delvis skyet
Delvis skyet
 Vind fra NNV
Vind: NNV 26 km/h
Temperatur: 13°C
Duggpunkt: 10°C
Fuktighet: 82%
Barometer: 1017.6 hPa
Clouds: Delvis skyet
Visibility: 13 km
Cloud details: Delvis skyet 427 m
2020/11/23 21:55 KHAF 232155Z AUTO 33014KT 8SM SCT014 13/10 A3005 RMK AO2
 
KHWD - Hayward, California, USA
Distance from station: N 44km
Oppdatert: 23/11/2020 22:54
Klart
Klart
 Vind fra V
Vind: V 7 km/h
Temperatur: 16°C
Duggpunkt: 8°C
Fuktighet: 59%
Barometer: 1016.6 hPa
Clouds: Klart
Visibility: 16 km
2020/11/23 21:54 KHWD 232154Z 26004KT 10SM CLR 16/08 A3002 RMK AO2 SLP177 T01610078 $
KLVK - Livermore, California, USA
Distance from station: NNØ 51km
Oppdatert: 23/11/2020 22:53
Klart
Klart
 Vind fra VSV
Vind: VSV 13 km/h
Temperatur: 17°C
Duggpunkt: 6°C
Fuktighet: 49%
Barometer: 1015.9 hPa
Clouds: Klart
Visibility: 16 km
2020/11/23 21:53 KLVK 232153Z 25007KT 10SM CLR 17/06 A3000 RMK AO2 SLP157 T01720061